Time;durP1;ratioP1;P1;durP2;ratioP2;P2;SDS_P1;SDS_P2;PMS_P1;PMS_P2;Temp;Humidity;BMP_temperature;BMP_pressure;BME280_temperature;BME280_humidity;BME280_pressure;Samples;Min_cycle;Max_cycle;Signal;HPM_P1;HPM_P2
2023/08/06 00:01:51;;;;;;;36.63;23.13;;;13.30;99.90;;;;;;5034636;28;20110;-64
2023/08/06 00:04:17;;;;;;;32.65;19.65;;;13.30;99.90;;;;;;5044865;28;20052;-66
2023/08/06 00:06:43;;;;;;;29.20;18.10;;;13.30;99.90;;;;;;5026295;28;20048;-65
2023/08/06 00:09:08;;;;;;;29.67;17.23;;;13.30;99.90;;;;;;5051110;28;20037;-66
2023/08/06 00:11:34;;;;;;;27.60;16.48;;;13.30;99.90;;;;;;5044065;28;20047;-66
2023/08/06 00:14:00;;;;;;;26.73;17.23;;;13.30;99.90;;;;;;5064435;28;20028;-67
2023/08/06 00:16:25;;;;;;;28.80;16.92;;;13.30;99.90;;;;;;5045535;28;20052;-64
2023/08/06 00:18:51;;;;;;;23.98;15.27;;;13.20;99.90;;;;;;5046472;28;20072;-65
2023/08/06 00:21:17;;;;;;;22.52;14.80;;;13.30;99.90;;;;;;5044805;28;20106;-65
2023/08/06 00:23:42;;;;;;;22.83;15.55;;;13.30;99.90;;;;;;5046415;28;20066;-67
2023/08/06 00:26:08;;;;;;;23.63;16.55;;;13.30;99.90;;;;;;5031668;28;20067;-66
2023/08/06 00:28:34;;;;;;;26.48;16.27;;;13.30;99.90;;;;;;5049796;28;20043;-66
2023/08/06 00:30:59;;;;;;;25.67;17.25;;;13.30;99.90;;;;;;5045393;28;20434;-64
2023/08/06 00:33:25;;;;;;;29.85;18.02;;;13.30;99.90;;;;;;5030652;28;20045;-65
2023/08/06 00:35:51;;;;;;;29.17;19.20;;;13.30;99.90;;;;;;5030076;28;20037;-64
2023/08/06 00:38:16;;;;;;;37.65;21.02;;;13.30;99.90;;;;;;5056689;28;20072;-63
2023/08/06 00:40:42;;;;;;;34.47;20.88;;;13.30;99.90;;;;;;5047682;28;20041;-64
2023/08/06 00:43:08;;;;;;;47.63;23.77;;;13.40;99.90;;;;;;5049332;28;20109;-63
2023/08/06 00:45:35;;;;;;;37.40;23.00;;;13.40;99.90;;;;;;5049344;28;20044;-63
2023/08/06 00:48:03;;;;;;;39.47;24.65;;;13.40;99.90;;;;;;5066061;28;20120;-64
2023/08/06 00:50:28;;;;;;;39.72;24.75;;;13.40;99.90;;;;;;5049342;28;20082;-64
2023/08/06 00:52:54;;;;;;;40.25;24.27;;;13.40;99.90;;;;;;5049503;28;20067;-64
2023/08/06 00:55:20;;;;;;;36.42;25.40;;;13.40;99.90;;;;;;5048315;28;20044;-65
2023/08/06 00:57:46;;;;;;;48.38;26.92;;;13.40;99.90;;;;;;5047361;28;20097;-63
2023/08/06 01:00:12;;;;;;;43.90;25.77;;;13.40;99.90;;;;;;5048059;28;20549;-64
2023/08/06 01:02:37;;;;;;;45.53;26.83;;;13.50;99.90;;;;;;5047573;28;20053;-64
2023/08/06 01:05:04;;;;;;;43.75;27.10;;;13.40;99.90;;;;;;5013151;28;20500;-64
2023/08/06 01:08:02;;;;;;;41.58;26.67;;;13.50;99.90;;;;;;5035417;28;20052;-64
2023/08/06 01:10:30;;;;;;;45.08;26.58;;;13.50;99.90;;;;;;5061823;28;20052;-65
2023/08/06 01:13:11;;;;;;;43.38;26.58;;;13.50;99.90;;;;;;5048285;28;20054;-65
2023/08/06 01:15:43;;;;;;;43.97;26.25;;;13.50;99.90;;;;;;5066686;28;20044;-66
2023/08/06 01:18:10;;;;;;;47.65;27.48;;;13.40;99.90;;;;;;5049706;28;20044;-66
2023/08/06 01:20:35;;;;;;;42.13;27.25;;;13.40;99.90;;;;;;5066871;28;20048;-65
2023/08/06 01:23:01;;;;;;;51.53;30.38;;;13.40;99.90;;;;;;5048880;28;20376;-68
2023/08/06 01:25:33;;;;;;;46.25;28.52;;;13.40;99.90;;;;;;5044638;28;20041;-65
2023/08/06 01:28:11;;;;;;;44.60;27.98;;;13.40;99.90;;;;;;5044449;28;20045;-64
2023/08/06 01:30:40;;;;;;;46.00;29.15;;;13.50;99.90;;;;;;5031079;28;20044;-66
2023/08/06 01:33:14;;;;;;;48.05;27.98;;;13.40;99.90;;;;;;5028842;28;20049;-64
2023/08/06 01:35:41;;;;;;;49.88;29.17;;;13.50;99.90;;;;;;5028508;28;20045;-65
2023/08/06 01:38:07;;;;;;;41.30;27.55;;;13.50;99.90;;;;;;5040485;28;20048;-63
2023/08/06 01:40:34;;;;;;;45.95;27.73;;;13.50;99.90;;;;;;5047592;28;20083;-65
2023/08/06 01:43:00;;;;;;;47.65;29.23;;;13.50;99.90;;;;;;5047537;28;20055;-66
2023/08/06 01:45:25;;;;;;;43.22;27.30;;;13.50;99.90;;;;;;5048007;28;20159;-66
2023/08/06 01:47:51;;;;;;;45.65;27.52;;;13.50;99.90;;;;;;5049119;28;20045;-67
2023/08/06 01:50:17;;;;;;;41.00;26.48;;;13.50;99.90;;;;;;5031379;28;20051;-65
2023/08/06 01:52:42;;;;;;;43.45;27.63;;;13.50;99.90;;;;;;5048746;28;20119;-66
2023/08/06 01:55:08;;;;;;;49.67;28.88;;;13.50;99.90;;;;;;5037962;28;20076;-64
2023/08/06 01:57:33;;;;;;;44.05;26.17;;;13.50;99.90;;;;;;5030008;28;20037;-65
2023/08/06 01:59:59;;;;;;;45.28;27.75;;;13.50;99.90;;;;;;5047524;28;20558;-65
2023/08/06 02:02:25;;;;;;;51.60;27.75;;;13.50;99.90;;;;;;5047974;28;20060;-65
2023/08/06 02:04:50;;;;;;;38.40;24.67;;;13.50;99.90;;;;;;5048403;28;20135;-66
2023/08/06 02:07:16;;;;;;;43.22;25.25;;;13.50;99.90;;;;;;5047765;28;20421;-66
2023/08/06 02:09:41;;;;;;;39.45;24.17;;;13.60;99.90;;;;;;5065362;28;20044;-66
2023/08/06 02:12:07;;;;;;;36.08;23.55;;;13.60;99.90;;;;;;5045539;28;20572;-67
2023/08/06 02:14:33;;;;;;;40.97;24.85;;;13.60;99.90;;;;;;5048358;28;20739;-64
2023/08/06 02:16:58;;;;;;;39.97;24.75;;;13.60;99.90;;;;;;5047367;28;20111;-65
2023/08/06 02:19:24;;;;;;;39.45;23.42;;;13.60;99.90;;;;;;5047423;28;20182;-64
2023/08/06 02:21:49;;;;;;;38.95;24.23;;;13.60;99.90;;;;;;5047515;28;20036;-67
2023/08/06 02:24:15;;;;;;;35.60;24.38;;;13.60;99.90;;;;;;5047439;28;20492;-65
2023/08/06 02:26:41;;;;;;;35.35;23.77;;;13.60;99.90;;;;;;5034140;28;20526;-67
2023/08/06 02:29:06;;;;;;;33.85;23.52;;;13.60;99.90;;;;;;5045952;28;20095;-66
2023/08/06 02:31:32;;;;;;;38.03;22.48;;;13.60;99.90;;;;;;5038354;28;20186;-66
2023/08/06 02:33:58;;;;;;;39.30;24.50;;;13.60;99.90;;;;;;5065775;28;20079;-66
2023/08/06 02:36:24;;;;;;;39.53;24.20;;;13.60;99.90;;;;;;5065457;28;20048;-66
2023/08/06 02:38:49;;;;;;;38.60;22.85;;;13.60;99.90;;;;;;5047132;28;20225;-67
2023/08/06 02:41:15;;;;;;;38.53;22.88;;;13.60;99.90;;;;;;5044664;28;20570;-67
2023/08/06 02:43:41;;;;;;;37.55;22.15;;;13.60;99.90;;;;;;5047565;28;20043;-65
2023/08/06 02:46:06;;;;;;;36.10;22.45;;;13.60;99.90;;;;;;5046210;28;20043;-67
2023/08/06 02:48:32;;;;;;;34.88;21.58;;;13.60;99.90;;;;;;5030610;28;20478;-66
2023/08/06 02:50:59;;;;;;;33.75;21.70;;;13.60;99.90;;;;;;5046867;28;20043;-67
2023/08/06 02:53:24;;;;;;;29.45;19.63;;;13.60;99.90;;;;;;5064628;28;20111;-68
2023/08/06 02:55:50;;;;;;;26.27;18.83;;;13.60;99.90;;;;;;5044828;28;20464;-63
2023/08/06 02:58:17;;;;;;;27.15;19.30;;;13.60;99.90;;;;;;5047626;28;20041;-64
2023/08/06 03:00:43;;;;;;;30.17;20.70;;;13.60;99.90;;;;;;5027312;28;20707;-65
2023/08/06 03:03:09;;;;;;;31.13;19.27;;;13.60;99.90;;;;;;5046942;28;20538;-63
2023/08/06 03:05:35;;;;;;;31.90;19.83;;;13.60;99.90;;;;;;5046758;28;20127;-64
2023/08/06 03:08:01;;;;;;;30.05;20.20;;;13.60;99.90;;;;;;5063111;28;20476;-63
2023/08/06 03:10:26;;;;;;;31.17;19.20;;;13.60;99.90;;;;;;5045453;28;20107;-65
2023/08/06 03:12:52;;;;;;;25.35;17.60;;;13.50;99.90;;;;;;5044018;28;20377;-65
2023/08/06 03:15:18;;;;;;;26.40;17.40;;;13.60;99.90;;;;;;5043864;28;20037;-66
2023/08/06 03:17:44;;;;;;;26.23;18.40;;;13.60;99.90;;;;;;5063018;28;20040;-64
2023/08/06 03:20:10;;;;;;;24.50;18.15;;;13.60;99.90;;;;;;5065321;28;20569;-64
2023/08/06 03:22:36;;;;;;;29.95;18.25;;;13.50;99.90;;;;;;5030295;28;20048;-64
2023/08/06 03:25:02;;;;;;;28.25;19.63;;;13.60;99.90;;;;;;5029195;28;20033;-65
2023/08/06 03:27:27;;;;;;;27.30;18.27;;;13.50;99.90;;;;;;5044952;28;20048;-62
2023/08/06 03:29:53;;;;;;;28.20;17.63;;;13.50;99.90;;;;;;5046583;28;20052;-63
2023/08/06 03:32:19;;;;;;;26.90;17.92;;;13.50;99.90;;;;;;5046143;28;20067;-64
2023/08/06 03:34:44;;;;;;;27.85;18.80;;;13.50;99.90;;;;;;5030097;28;20040;-63
2023/08/06 03:37:10;;;;;;;32.25;19.65;;;13.50;99.90;;;;;;5046317;28;20037;-61
2023/08/06 03:39:36;;;;;;;32.17;20.63;;;13.50;99.90;;;;;;5045653;28;20206;-64
2023/08/06 03:42:01;;;;;;;28.88;19.85;;;13.50;99.90;;;;;;5044665;28;20047;-65
2023/08/06 03:44:28;;;;;;;30.17;19.77;;;13.50;99.90;;;;;;5064537;28;20138;-67
2023/08/06 03:46:53;;;;;;;28.05;19.48;;;13.50;99.90;;;;;;5032953;28;20041;-63
2023/08/06 03:49:19;;;;;;;32.00;20.63;;;13.50;99.90;;;;;;5047672;28;20032;-64
2023/08/06 03:51:46;;;;;;;27.73;19.10;;;13.50;99.90;;;;;;5045647;28;20039;-63
2023/08/06 03:54:12;;;;;;;31.85;19.77;;;13.50;99.90;;;;;;5064156;28;20412;-66
2023/08/06 03:56:37;;;;;;;32.05;19.95;;;13.40;99.90;;;;;;5040960;28;20040;-64
2023/08/06 03:59:03;;;;;;;29.88;19.50;;;13.40;99.90;;;;;;5027012;28;20612;-63
2023/08/06 04:01:29;;;;;;;31.50;18.85;;;13.40;99.90;;;;;;5027258;28;20067;-63
2023/08/06 04:03:58;;;;;;;29.98;19.80;;;13.40;99.90;;;;;;5044983;28;20146;-63
2023/08/06 04:06:23;;;;;;;30.48;18.77;;;13.30;99.90;;;;;;5048410;28;20317;-63
2023/08/06 04:08:49;;;;;;;26.88;18.45;;;13.30;99.90;;;;;;5046013;28;20518;-63
2023/08/06 04:11:14;;;;;;;31.23;19.55;;;13.30;99.90;;;;;;5043881;28;20035;-63
2023/08/06 04:13:43;;;;;;;32.22;20.25;;;13.30;99.90;;;;;;5064686;28;20037;-62
2023/08/06 04:16:09;;;;;;;28.80;19.80;;;13.30;99.90;;;;;;5039576;28;20679;-66
2023/08/06 04:18:35;;;;;;;30.58;20.27;;;13.20;99.90;;;;;;5043430;28;20081;-62
2023/08/06 04:21:02;;;;;;;32.10;21.55;;;13.20;99.90;;;;;;5042814;28;20048;-64
2023/08/06 04:23:28;;;;;;;31.83;20.40;;;13.20;99.90;;;;;;5057569;28;20055;-67
2023/08/06 04:25:57;;;;;;;35.05;20.27;;;13.20;99.90;;;;;;5044946;28;20399;-63
2023/08/06 04:28:23;;;;;;;36.30;21.38;;;13.20;99.90;;;;;;5046763;28;20123;-63
2023/08/06 04:30:48;;;;;;;30.77;21.05;;;13.20;99.90;;;;;;5060966;28;20166;-62
2023/08/06 04:33:14;;;;;;;31.75;20.50;;;13.20;99.90;;;;;;5026411;28;20713;-63
2023/08/06 04:35:39;;;;;;;29.67;19.20;;;13.20;99.90;;;;;;5052591;28;20044;-64
2023/08/06 04:38:05;;;;;;;29.40;19.90;;;13.20;99.90;;;;;;5042550;28;20404;-62
2023/08/06 04:40:34;;;;;;;33.28;20.58;;;13.20;99.90;;;;;;5041415;28;20041;-63
2023/08/06 04:43:00;;;;;;;30.77;20.17;;;13.20;99.90;;;;;;5028215;28;20519;-62
2023/08/06 04:45:26;;;;;;;29.83;20.02;;;13.20;99.90;;;;;;5045718;28;20044;-64
2023/08/06 04:47:51;;;;;;;31.63;19.60;;;13.20;99.90;;;;;;5029771;28;20047;-63
2023/08/06 04:50:19;;;;;;;27.65;17.92;;;13.10;99.90;;;;;;5045600;28;20043;-64
2023/08/06 04:52:45;;;;;;;31.35;19.25;;;13.20;99.90;;;;;;5063775;28;20071;-66
2023/08/06 04:55:10;;;;;;;29.70;18.23;;;13.20;99.90;;;;;;5029100;28;20616;-63
2023/08/06 04:57:36;;;;;;;26.63;18.70;;;13.20;99.90;;;;;;5045756;28;20153;-62
2023/08/06 05:00:02;;;;;;;25.23;17.17;;;13.20;99.90;;;;;;5025680;28;20052;-64
2023/08/06 05:02:28;;;;;;;23.08;16.27;;;13.20;99.90;;;;;;5061895;28;20057;-64
2023/08/06 05:04:53;;;;;;;24.67;16.35;;;13.20;99.90;;;;;;5063415;28;20047;-63
2023/08/06 05:07:19;;;;;;;25.95;16.77;;;13.20;99.90;;;;;;5045422;28;20049;-65
2023/08/06 05:09:44;;;;;;;25.80;16.15;;;13.20;99.90;;;;;;5045975;28;20051;-65
2023/08/06 05:12:10;;;;;;;36.30;19.20;;;13.20;99.90;;;;;;5047049;28;20036;-64
2023/08/06 05:14:36;;;;;;;24.45;15.68;;;13.20;99.90;;;;;;5049386;28;20044;-65
2023/08/06 05:17:04;;;;;;;25.90;16.58;;;13.20;99.90;;;;;;5048669;28;20477;-65
2023/08/06 05:19:29;;;;;;;27.27;18.38;;;13.30;99.90;;;;;;5032089;28;20155;-64
2023/08/06 05:21:55;;;;;;;24.77;16.80;;;13.50;99.90;;;;;;5046976;28;20140;-63
2023/08/06 05:24:20;;;;;;;23.75;15.80;;;13.50;99.90;;;;;;5046761;28;20043;-65
2023/08/06 05:26:47;;;;;;;26.48;16.15;;;13.60;99.90;;;;;;5030183;28;20105;-67
2023/08/06 05:29:13;;;;;;;23.13;16.20;;;13.60;99.90;;;;;;5049078;28;20473;-64
2023/08/06 05:31:38;;;;;;;23.38;16.25;;;13.50;99.90;;;;;;5066127;28;20115;-65
2023/08/06 05:34:04;;;;;;;25.50;16.85;;;13.50;99.90;;;;;;5049007;28;20458;-62
2023/08/06 05:36:30;;;;;;;24.48;15.98;;;13.50;99.90;;;;;;5048520;28;20128;-66
2023/08/06 05:38:55;;;;;;;27.25;17.13;;;13.60;99.90;;;;;;5031915;28;20503;-63
2023/08/06 05:41:21;;;;;;;26.02;16.05;;;13.60;99.90;;;;;;5035860;28;20600;-64
2023/08/06 05:43:46;;;;;;;26.92;18.02;;;13.60;99.90;;;;;;5047218;28;20255;-65
2023/08/06 05:46:12;;;;;;;28.80;18.35;;;13.70;99.90;;;;;;5038217;28;20443;-64
2023/08/06 05:48:38;;;;;;;26.98;17.75;;;13.70;99.90;;;;;;5048680;28;20411;-65
2023/08/06 05:51:03;;;;;;;29.20;18.77;;;13.80;99.90;;;;;;5048452;28;20032;-64
2023/08/06 05:53:29;;;;;;;31.67;18.23;;;13.80;99.90;;;;;;5066454;28;20345;-65
2023/08/06 05:55:54;;;;;;;28.55;17.80;;;13.80;99.90;;;;;;5046220;28;20043;-63
2023/08/06 05:58:20;;;;;;;32.72;18.17;;;13.90;99.90;;;;;;5032143;28;20427;-63
2023/08/06 06:00:46;;;;;;;28.85;18.02;;;13.90;99.90;;;;;;5028129;28;20075;-62
2023/08/06 06:03:11;;;;;;;26.60;17.58;;;13.90;99.90;;;;;;5046514;28;20134;-67
2023/08/06 06:05:40;;;;;;;28.25;18.75;;;13.90;99.90;;;;;;5029869;28;20125;-66
2023/08/06 06:08:06;;;;;;;27.08;17.75;;;14.00;99.90;;;;;;5028917;28;20048;-68
2023/08/06 06:10:31;;;;;;;25.75;17.33;;;14.00;99.90;;;;;;5027938;28;20041;-68
2023/08/06 06:12:57;;;;;;;28.08;17.25;;;14.10;99.90;;;;;;5011499;28;20124;-70
2023/08/06 06:15:23;;;;;;;27.23;18.63;;;14.10;99.90;;;;;;5047039;28;20040;-65
2023/08/06 06:17:48;;;;;;;26.75;17.52;;;14.20;99.90;;;;;;5048086;28;20040;-67
2023/08/06 06:20:14;;;;;;;23.60;16.52;;;14.30;99.90;;;;;;5047955;28;20468;-64
2023/08/06 06:22:40;;;;;;;24.83;16.95;;;14.30;99.90;;;;;;5046477;28;20106;-66
2023/08/06 06:25:06;;;;;;;25.08;16.60;;;14.40;99.90;;;;;;5031105;28;20037;-63
2023/08/06 06:27:32;;;;;;;25.10;16.23;;;14.40;99.90;;;;;;5029822;28;20071;-65
2023/08/06 06:29:58;;;;;;;22.65;15.20;;;14.40;99.90;;;;;;5030681;28;20624;-66
2023/08/06 06:32:24;;;;;;;22.58;15.10;;;14.50;99.90;;;;;;5027429;28;20032;-68
2023/08/06 06:34:49;;;;;;;23.80;16.35;;;14.50;99.90;;;;;;5028044;28;20072;-64
2023/08/06 06:37:15;;;;;;;25.05;16.02;;;14.50;99.90;;;;;;5045424;28;20033;-66
2023/08/06 06:39:40;;;;;;;23.35;15.77;;;14.50;99.90;;;;;;5033835;28;20710;-64
2023/08/06 06:42:06;;;;;;;22.70;15.88;;;14.50;99.90;;;;;;5026490;28;20048;-64
2023/08/06 06:44:32;;;;;;;23.77;15.50;;;14.40;99.90;;;;;;5054551;28;20078;-64
2023/08/06 06:46:58;;;;;;;23.20;16.77;;;14.50;99.90;;;;;;5065199;28;20051;-65
2023/08/06 06:49:23;;;;;;;23.58;16.05;;;14.50;99.90;;;;;;5047171;28;20044;-67
2023/08/06 06:51:50;;;;;;;22.95;15.15;;;14.50;99.90;;;;;;5029842;28;20386;-67
2023/08/06 06:54:15;;;;;;;28.15;16.23;;;14.50;99.90;;;;;;5030541;28;20044;-65
2023/08/06 06:56:44;;;;;;;21.88;15.95;;;14.50;99.90;;;;;;5044684;28;20094;-63
2023/08/06 06:59:10;;;;;;;23.20;14.05;;;14.60;99.90;;;;;;5030892;28;20070;-62
2023/08/06 07:01:35;;;;;;;25.45;16.48;;;14.60;99.90;;;;;;5037279;28;20056;-62
2023/08/06 07:04:04;;;;;;;21.05;15.38;;;14.70;99.90;;;;;;5044350;28;20128;-62
2023/08/06 07:06:33;;;;;;;19.75;15.10;;;14.70;99.90;;;;;;5043727;28;20041;-62
2023/08/06 07:08:58;;;;;;;22.45;14.57;;;14.70;99.90;;;;;;5053742;28;20495;-63
2023/08/06 07:11:24;;;;;;;20.75;15.07;;;14.80;99.90;;;;;;5038782;28;20119;-65
2023/08/06 07:13:55;;;;;;;20.05;14.35;;;14.80;99.90;;;;;;5027523;28;20037;-66
2023/08/06 07:16:21;;;;;;;18.77;14.50;;;14.90;99.90;;;;;;5033405;28;20576;-66
2023/08/06 07:18:47;;;;;;;20.45;13.57;;;15.00;99.90;;;;;;5054645;28;20487;-65
2023/08/06 07:21:12;;;;;;;20.20;13.25;;;15.00;99.90;;;;;;5009797;28;20079;-65
2023/08/06 07:23:38;;;;;;;19.30;13.82;;;15.10;99.90;;;;;;5010249;28;20677;-66
2023/08/06 07:26:04;;;;;;;17.23;13.35;;;15.10;99.90;;;;;;5014575;28;20079;-64
2023/08/06 07:28:29;;;;;;;15.55;12.68;;;15.20;99.90;;;;;;5026394;28;20052;-65
2023/08/06 07:30:55;;;;;;;19.05;13.18;;;15.30;99.90;;;;;;5030533;28;20040;-66
2023/08/06 07:33:21;;;;;;;19.50;14.02;;;15.40;99.90;;;;;;5046519;28;20045;-64
2023/08/06 07:35:46;;;;;;;16.45;11.88;;;15.40;99.90;;;;;;5045890;28;20044;-64
2023/08/06 07:38:12;;;;;;;16.48;12.90;;;15.50;99.90;;;;;;5046677;28;20129;-65
2023/08/06 07:40:38;;;;;;;16.85;12.57;;;15.50;99.90;;;;;;5045231;28;20052;-65
2023/08/06 07:43:05;;;;;;;18.50;11.68;;;15.60;99.90;;;;;;5043625;28;20045;-65
2023/08/06 07:45:35;;;;;;;22.70;12.55;;;15.50;99.90;;;;;;5044082;28;20129;-68
2023/08/06 07:48:01;;;;;;;15.90;11.93;;;15.60;99.90;;;;;;5026616;28;20037;-64
2023/08/06 07:50:27;;;;;;;16.35;11.95;;;15.60;99.90;;;;;;5044888;28;20431;-71
2023/08/06 07:52:52;;;;;;;14.73;11.73;;;15.60;99.90;;;;;;5044583;28;20068;-69
2023/08/06 07:55:18;;;;;;;13.68;10.27;;;15.70;99.90;;;;;;5056628;28;20040;-63
2023/08/06 07:57:44;;;;;;;15.90;11.70;;;15.70;99.90;;;;;;5062842;28;20087;-63
2023/08/06 08:00:10;;;;;;;17.65;11.68;;;15.70;99.90;;;;;;5045991;28;20049;-68
2023/08/06 08:02:35;;;;;;;14.77;11.05;;;15.80;99.90;;;;;;5045241;28;20479;-64
2023/08/06 08:05:01;;;;;;;16.33;11.25;;;15.90;99.90;;;;;;5064669;28;20056;-64
2023/08/06 08:07:28;;;;;;;16.20;10.18;;;15.90;99.90;;;;;;5046364;28;20731;-63
2023/08/06 08:09:54;;;;;;;15.02;11.57;;;15.90;99.90;;;;;;5042636;28;20073;-66
2023/08/06 08:12:20;;;;;;;15.35;10.55;;;16.00;99.90;;;;;;5055724;28;20407;-64
2023/08/06 08:14:45;;;;;;;13.77;10.48;;;16.10;99.90;;;;;;5064061;28;20044;-64
2023/08/06 08:17:12;;;;;;;13.18;10.77;;;16.10;99.90;;;;;;5045295;28;20040;-62
2023/08/06 08:19:37;;;;;;;14.52;10.85;;;16.10;99.90;;;;;;5044870;28;20128;-67
2023/08/06 08:22:03;;;;;;;13.93;9.77;;;16.20;99.90;;;;;;5038974;28;20182;-67
2023/08/06 08:24:30;;;;;;;12.70;9.38;;;16.20;99.90;;;;;;5031043;28;20122;-64
2023/08/06 08:26:56;;;;;;;11.45;9.30;;;16.20;99.90;;;;;;5039798;28;20041;-65
2023/08/06 08:29:22;;;;;;;14.25;10.52;;;16.30;99.90;;;;;;5041818;28;20519;-64
2023/08/06 08:31:50;;;;;;;16.75;9.25;;;16.40;99.90;;;;;;5025990;28;20033;-64
2023/08/06 08:34:19;;;;;;;12.15;8.93;;;16.50;99.90;;;;;;5045348;28;20119;-63
2023/08/06 08:36:47;;;;;;;14.38;9.13;;;16.50;99.90;;;;;;5027126;28;20342;-65
2023/08/06 08:39:13;;;;;;;13.85;9.35;;;16.70;99.90;;;;;;5041262;28;20064;-64
2023/08/06 08:41:39;;;;;;;13.13;9.85;;;16.70;99.90;;;;;;5035091;28;20086;-64
2023/08/06 08:44:10;;;;;;;11.63;8.18;;;16.80;99.90;;;;;;5063786;28;20124;-65
2023/08/06 08:46:38;;;;;;;12.20;8.35;;;16.80;99.90;;;;;;5066999;28;20056;-62
2023/08/06 08:49:04;;;;;;;11.43;8.00;;;17.00;99.90;;;;;;5066193;28;20044;-62
2023/08/06 08:51:31;;;;;;;16.55;8.18;;;17.10;99.90;;;;;;5047619;28;20043;-66
2023/08/06 08:53:57;;;;;;;13.20;8.65;;;17.20;99.90;;;;;;5063329;28;20044;-65
2023/08/06 08:56:23;;;;;;;11.75;5.63;;;17.20;99.90;;;;;;5045798;28;20047;-64
2023/08/06 08:58:49;;;;;;;9.40;4.55;;;17.30;99.90;;;;;;5048670;28;20442;-67
2023/08/06 09:01:15;;;;;;;9.10;4.40;;;17.40;99.90;;;;;;5049006;28;20040;-63
2023/08/06 09:03:43;;;;;;;10.55;3.63;;;17.50;99.90;;;;;;5049908;28;20064;-64
2023/08/06 09:06:11;;;;;;;6.45;3.30;;;17.60;99.90;;;;;;5048549;28;20445;-63
2023/08/06 09:08:41;;;;;;;7.30;4.20;;;17.60;99.90;;;;;;5048447;28;20071;-64
2023/08/06 09:11:12;;;;;;;6.25;3.90;;;17.70;99.90;;;;;;5030543;28;20497;-63
2023/08/06 09:13:38;;;;;;;5.95;3.30;;;17.80;99.90;;;;;;5066807;28;20036;-65
2023/08/06 09:16:04;;;;;;;6.32;3.72;;;17.90;99.90;;;;;;5048918;28;20032;-65
2023/08/06 09:18:31;;;;;;;8.27;3.60;;;17.90;99.90;;;;;;5049213;28;20477;-66
2023/08/06 09:20:57;;;;;;;7.88;3.17;;;18.00;99.90;;;;;;5046947;28;20070;-69
2023/08/06 09:23:31;;;;;;;5.63;2.80;;;18.10;99.90;;;;;;5048501;28;20048;-65
2023/08/06 09:25:57;;;;;;;6.25;2.70;;;18.20;99.90;;;;;;5054263;28;20624;-65
2023/08/06 09:28:26;;;;;;;7.30;2.85;;;18.20;99.90;;;;;;5030027;28;20052;-66
2023/08/06 09:30:55;;;;;;;6.10;2.75;;;18.20;99.90;;;;;;5027803;28;20379;-65
2023/08/06 09:33:22;;;;;;;7.53;2.70;;;18.30;99.90;;;;;;5030759;28;20474;-65
2023/08/06 09:35:48;;;;;;;6.20;3.15;;;18.50;99.90;;;;;;5031198;28;20331;-62
2023/08/06 09:38:14;;;;;;;6.78;2.92;;;18.60;99.90;;;;;;5048163;28;20435;-67
2023/08/06 09:40:40;;;;;;;7.30;2.67;;;18.70;99.90;;;;;;5045375;28;20049;-64
2023/08/06 09:43:06;;;;;;;5.90;2.70;;;18.80;99.90;;;;;;5045175;28;20029;-64
2023/08/06 09:45:33;;;;;;;6.00;2.78;;;18.90;99.90;;;;;;5030954;28;20037;-64
2023/08/06 09:48:02;;;;;;;7.05;3.30;;;18.90;99.90;;;;;;5048251;28;20044;-65
2023/08/06 09:50:32;;;;;;;5.55;2.92;;;19.00;99.90;;;;;;5030778;28;20040;-64
2023/08/06 09:52:59;;;;;;;6.35;2.90;;;19.00;99.90;;;;;;5047131;28;20033;-62
2023/08/06 09:55:26;;;;;;;6.63;2.83;;;19.00;99.90;;;;;;5045899;28;20064;-62
2023/08/06 09:57:52;;;;;;;7.45;3.00;;;19.00;99.90;;;;;;5065026;28;20109;-63
2023/08/06 10:00:18;;;;;;;6.50;2.70;;;19.00;99.90;;;;;;5064648;28;20487;-63
2023/08/06 10:02:45;;;;;;;7.20;2.45;;;19.10;99.90;;;;;;5029786;28;20051;-64
2023/08/06 10:05:10;;;;;;;5.25;2.25;;;19.00;99.90;;;;;;5064025;28;20415;-63
2023/08/06 10:07:38;;;;;;;7.60;2.30;;;19.00;99.90;;;;;;5047148;28;20036;-64
2023/08/06 10:10:05;;;;;;;4.80;2.28;;;19.00;99.90;;;;;;5063819;28;20036;-62
2023/08/06 10:12:34;;;;;;;7.63;2.28;;;19.00;99.90;;;;;;5061581;28;20419;-63
2023/08/06 10:15:04;;;;;;;5.32;2.10;;;19.20;99.90;;;;;;5046777;28;20033;-63
2023/08/06 10:17:32;;;;;;;5.30;1.95;;;19.40;99.90;;;;;;5063938;28;20040;-66
2023/08/06 10:19:59;;;;;;;6.60;2.33;;;19.50;99.90;;;;;;5046714;28;20257;-64
2023/08/06 10:22:27;;;;;;;5.07;1.88;;;19.60;99.90;;;;;;5046637;28;20082;-63
2023/08/06 10:24:54;;;;;;;4.55;1.92;;;19.70;99.90;;;;;;5046307;28;20051;-66
2023/08/06 10:27:21;;;;;;;4.80;2.00;;;19.80;99.90;;;;;;5043019;28;20098;-64
2023/08/06 10:29:48;;;;;;;7.88;2.42;;;19.90;99.90;;;;;;5046195;28;20047;-66
2023/08/06 10:32:13;;;;;;;5.47;2.17;;;20.00;99.90;;;;;;5063584;28;20029;-62
2023/08/06 10:34:56;;;;;;;6.38;2.15;;;20.10;99.90;;;;;;5064520;28;20040;-64
2023/08/06 10:37:23;;;;;;;7.25;2.15;;;20.20;99.90;;;;;;5044115;28;20062;-66
2023/08/06 10:39:52;;;;;;;5.57;2.15;;;20.20;99.90;;;;;;5028899;28;20048;-66
2023/08/06 10:42:36;;;;;;;6.55;2.22;;;20.20;99.90;;;;;;5045663;28;20139;-61
2023/08/06 10:45:16;;;;;;;5.43;1.90;;;20.10;99.90;;;;;;5065114;28;20051;-62
2023/08/06 10:47:46;;;;;;;6.93;2.20;;;20.10;99.90;;;;;;5028682;28;20560;-64
2023/08/06 10:50:17;;;;;;;4.88;2.00;;;19.90;99.90;;;;;;5045389;28;20040;-64
2023/08/06 10:52:47;;;;;;;5.50;1.98;;;19.90;99.90;;;;;;5045790;28;20032;-65
2023/08/06 10:55:13;;;;;;;4.85;2.10;;;19.80;99.90;;;;;;5063738;28;20044;-66
2023/08/06 10:57:40;;;;;;;5.57;2.20;;;19.70;99.90;;;;;;5045390;28;20052;-63
2023/08/06 11:00:08;;;;;;;4.93;1.88;;;19.60;99.90;;;;;;5047704;28;20037;-63
2023/08/06 11:02:35;;;;;;;4.70;1.98;;;19.50;99.90;;;;;;5065091;28;20064;-65
2023/08/06 11:05:08;;;;;;;5.05;1.90;;;19.50;99.90;;;;;;5047373;28;20074;-65
2023/08/06 11:07:37;;;;;;;6.80;2.17;;;19.50;99.90;;;;;;5063305;28;20044;-63
2023/08/06 11:10:08;;;;;;;5.05;2.15;;;19.50;99.90;;;;;;5045700;28;20357;-63
2023/08/06 11:12:34;;;;;;;7.78;2.08;;;19.50;99.90;;;;;;5038710;28;20040;-64
2023/08/06 11:15:01;;;;;;;5.30;1.98;;;19.50;99.90;;;;;;5047046;28;20044;-66
2023/08/06 11:17:28;;;;;;;4.80;2.03;;;19.40;99.90;;;;;;5030011;28;20071;-66
2023/08/06 11:19:54;;;;;;;7.07;2.20;;;19.50;99.90;;;;;;5047070;28;20036;-69
2023/08/06 11:22:21;;;;;;;5.07;2.03;;;19.50;99.90;;;;;;5045513;28;20055;-65
2023/08/06 11:24:47;;;;;;;5.22;1.83;;;19.60;99.90;;;;;;5047006;28;20039;-66
2023/08/06 11:27:14;;;;;;;6.47;2.15;;;19.60;99.90;;;;;;5044937;28;20055;-69
2023/08/06 11:29:43;;;;;;;4.63;1.92;;;19.70;99.90;;;;;;5046409;28;20045;-65
2023/08/06 11:32:10;;;;;;;5.57;1.90;;;19.70;99.90;;;;;;5043736;28;20036;-65
2023/08/06 11:34:37;;;;;;;5.40;1.90;;;19.70;99.90;;;;;;5029734;28;20035;-64
2023/08/06 11:37:06;;;;;;;4.95;2.15;;;19.70;99.90;;;;;;5064604;28;20547;-67
2023/08/06 11:39:33;;;;;;;5.72;1.95;;;19.70;99.90;;;;;;5046227;28;20101;-61
2023/08/06 11:42:02;;;;;;;5.35;2.28;;;19.80;99.90;;;;;;5063012;28;20147;-67
2023/08/06 11:44:31;;;;;;;6.18;1.83;;;19.90;99.90;;;;;;5046914;28;20040;-63
2023/08/06 11:46:56;;;;;;;4.10;1.95;;;19.90;99.90;;;;;;5029325;28;20044;-66
2023/08/06 11:49:48;;;;;;;6.28;1.73;;;19.90;99.90;;;;;;5045810;28;20041;-62
2023/08/06 11:52:22;;;;;;;5.97;1.83;;;19.90;99.90;;;;;;5029953;28;20044;-68
2023/08/06 11:55:07;;;;;;;5.85;2.20;;;20.00;99.90;;;;;;5064511;28;20139;-66
2023/08/06 11:57:35;;;;;;;5.03;1.70;;;20.00;99.90;;;;;;5030217;28;20037;-67
2023/08/06 12:00:04;;;;;;;5.32;2.03;;;19.90;99.90;;;;;;5026760;28;20041;-64
2023/08/06 12:02:35;;;;;;;5.10;1.83;;;20.00;99.90;;;;;;5060748;28;20435;-65
2023/08/06 12:05:14;;;;;;;5.05;1.80;;;20.10;99.90;;;;;;5046923;28;20141;-65
2023/08/06 12:07:48;;;;;;;5.32;1.90;;;20.10;99.90;;;;;;5064057;28;20067;-64
2023/08/06 12:10:15;;;;;;;4.70;1.77;;;20.20;99.90;;;;;;5063957;28;20059;-64
2023/08/06 12:12:41;;;;;;;4.88;1.98;;;20.20;99.90;;;;;;5046426;28;20052;-65
2023/08/06 12:15:08;;;;;;;4.93;1.90;;;20.30;99.90;;;;;;5031979;28;20612;-64
2023/08/06 12:17:35;;;;;;;4.45;1.70;;;20.20;99.90;;;;;;5046048;28;20044;-65
2023/08/06 12:20:01;;;;;;;5.70;2.08;;;20.20;99.90;;;;;;5049074;28;20459;-66
2023/08/06 12:22:27;;;;;;;5.30;2.33;;;20.20;99.90;;;;;;5038978;28;20045;-68
2023/08/06 12:24:52;;;;;;;5.47;2.00;;;20.10;99.90;;;;;;5036844;28;20044;-64
2023/08/06 12:27:18;;;;;;;5.90;1.80;;;20.10;99.90;;;;;;5048149;28;20498;-66
2023/08/06 12:29:48;;;;;;;5.85;2.25;;;20.00;99.90;;;;;;5049979;28;20377;-62
2023/08/06 12:32:14;;;;;;;5.53;1.75;;;20.00;99.90;;;;;;5067327;28;20119;-65